sensor_id;sensor_type;location;lat;lon;timestamp;pressure;altitude;pressure_sealevel;temperature;humidity
71194;BME280;58903;47.210;8.618;2024-03-02T00:02:14;93067.84;;;26.49;39.80
71194;BME280;58903;47.210;8.618;2024-03-02T00:04:40;93072.59;;;26.48;39.27
71194;BME280;58903;47.210;8.618;2024-03-02T00:07:14;93065.78;;;26.49;39.51
71194;BME280;58903;47.210;8.618;2024-03-02T00:09:40;93068.56;;;26.49;39.25
71194;BME280;58903;47.210;8.618;2024-03-02T00:12:07;93079.03;;;26.51;39.95
71194;BME280;58903;47.210;8.618;2024-03-02T00:14:35;93074.06;;;26.49;39.21
71194;BME280;58903;47.210;8.618;2024-03-02T00:17:01;93076.81;;;26.49;39.20
71194;BME280;58903;47.210;8.618;2024-03-02T00:19:27;93076.81;;;26.49;39.71
71194;BME280;58903;47.210;8.618;2024-03-02T00:22:00;93068.03;;;26.51;39.10
71194;BME280;58903;47.210;8.618;2024-03-02T00:24:33;93070.97;;;26.53;38.81
71194;BME280;58903;47.210;8.618;2024-03-02T00:27:00;93074.81;;;26.50;39.38
71194;BME280;58903;47.210;8.618;2024-03-02T00:29:27;93066.53;;;26.50;39.32
71194;BME280;58903;47.210;8.618;2024-03-02T00:32:23;93080.31;;;26.50;39.03
71194;BME280;58903;47.210;8.618;2024-03-02T00:34:49;93079.56;;;26.49;38.97
71194;BME280;58903;47.210;8.618;2024-03-02T00:37:17;93076.09;;;26.49;38.87
71194;BME280;58903;47.210;8.618;2024-03-02T00:39:49;93084.38;;;26.49;38.71
71194;BME280;58903;47.210;8.618;2024-03-02T00:42:17;93080.13;;;26.48;38.97
71194;BME280;58903;47.210;8.618;2024-03-02T00:44:45;93093.72;;;26.46;38.59
71194;BME280;58903;47.210;8.618;2024-03-02T00:47:13;93091.53;;;26.44;39.01
71194;BME280;58903;47.210;8.618;2024-03-02T00:49:39;93095.22;;;26.47;39.18
71194;BME280;58903;47.210;8.618;2024-03-02T00:52:06;93095.22;;;26.47;39.05
71194;BME280;58903;47.210;8.618;2024-03-02T00:54:35;93086.94;;;26.47;39.18
71194;BME280;58903;47.210;8.618;2024-03-02T00:57:04;93087.47;;;26.45;38.92
71194;BME280;58903;47.210;8.618;2024-03-02T00:59:31;93084.19;;;26.47;38.91
71194;BME280;58903;47.210;8.618;2024-03-02T01:01:57;93080.69;;;26.46;39.18
71194;BME280;58903;47.210;8.618;2024-03-02T01:04:34;93082.69;;;26.46;38.69
71194;BME280;58903;47.210;8.618;2024-03-02T01:07:00;93081.44;;;26.47;39.10
71194;BME280;58903;47.210;8.618;2024-03-02T01:09:47;93082.88;;;26.48;38.95
71194;BME280;58903;47.210;8.618;2024-03-02T01:12:45;93079.38;;;26.47;39.26
71194;BME280;58903;47.210;8.618;2024-03-02T01:15:40;93079.94;;;26.46;39.45
71194;BME280;58903;47.210;8.618;2024-03-02T01:18:16;93081.22;;;26.45;39.06
71194;BME280;58903;47.210;8.618;2024-03-02T01:20:45;93086.03;;;26.44;38.98
71194;BME280;58903;47.210;8.618;2024-03-02T01:23:16;93086.72;;;26.45;39.03
71194;BME280;58903;47.210;8.618;2024-03-02T01:25:42;93083.97;;;26.45;38.87
71194;BME280;58903;47.210;8.618;2024-03-02T01:28:09;93092.25;;;26.45;38.92
71194;BME280;58903;47.210;8.618;2024-03-02T01:30:38;93084.19;;;26.47;38.52
71194;BME280;58903;47.210;8.618;2024-03-02T01:33:04;93085.66;;;26.48;38.59
71194;BME280;58903;47.210;8.618;2024-03-02T01:35:45;93092.47;;;26.47;39.28
71194;BME280;58903;47.210;8.618;2024-03-02T01:38:25;93087.47;;;26.45;38.61
71194;BME280;58903;47.210;8.618;2024-03-02T01:41:01;93089.50;;;26.45;39.42
71194;BME280;58903;47.210;8.618;2024-03-02T01:43:28;93093.00;;;26.45;38.95
71194;BME280;58903;47.210;8.618;2024-03-02T01:45:55;93103.28;;;26.45;38.69
71194;BME280;58903;47.210;8.618;2024-03-02T01:48:24;93091.53;;;26.44;39.17
71194;BME280;58903;47.210;8.618;2024-03-02T01:51:03;93097.75;;;26.45;38.74
71194;BME280;58903;47.210;8.618;2024-03-02T01:53:34;93090.03;;;26.43;39.18
71194;BME280;58903;47.210;8.618;2024-03-02T01:56:02;93099.06;;;26.44;38.55
71194;BME280;58903;47.210;8.618;2024-03-02T01:58:37;93091.88;;;26.41;38.87
71194;BME280;58903;47.210;8.618;2024-03-02T02:01:39;93095.56;;;26.43;38.78
71194;BME280;58903;47.210;8.618;2024-03-02T02:04:05;93098.88;;;26.42;39.13
71194;BME280;58903;47.210;8.618;2024-03-02T02:06:46;93096.31;;;26.44;38.97
71194;BME280;58903;47.210;8.618;2024-03-02T02:09:32;93096.31;;;26.44;38.79
71194;BME280;58903;47.210;8.618;2024-03-02T02:12:14;93101.63;;;26.42;38.83
71194;BME280;58903;47.210;8.618;2024-03-02T02:14:52;93093.16;;;26.40;38.56
71194;BME280;58903;47.210;8.618;2024-03-02T02:17:52;93093.53;;;26.44;38.99
71194;BME280;58903;47.210;8.618;2024-03-02T02:20:27;93094.81;;;26.43;38.95
71194;BME280;58903;47.210;8.618;2024-03-02T02:23:10;93098.88;;;26.42;38.83
71194;BME280;58903;47.210;8.618;2024-03-02T02:25:49;93088.59;;;26.42;38.61
71194;BME280;58903;47.210;8.618;2024-03-02T02:28:18;93094.63;;;26.41;38.78
71194;BME280;58903;47.210;8.618;2024-03-02T02:30:43;93089.66;;;26.39;38.89
71194;BME280;58903;47.210;8.618;2024-03-02T02:33:09;93088.41;;;26.40;39.21
71194;BME280;58903;47.210;8.618;2024-03-02T02:35:37;93081.97;;;26.38;39.12
71194;BME280;58903;47.210;8.618;2024-03-02T02:38:05;93073.88;;;26.40;39.04
71194;BME280;58903;47.210;8.618;2024-03-02T02:40:40;93076.44;;;26.38;38.85
71194;BME280;58903;47.210;8.618;2024-03-02T02:43:06;93076.81;;;26.42;38.45
71194;BME280;58903;47.210;8.618;2024-03-02T02:45:32;93065.59;;;26.40;38.75
71194;BME280;58903;47.210;8.618;2024-03-02T02:48:01;93069.09;;;26.40;38.95
71194;BME280;58903;47.210;8.618;2024-03-02T02:50:30;93065.78;;;26.42;38.72
71194;BME280;58903;47.210;8.618;2024-03-02T02:52:56;93062.28;;;26.41;39.11
71194;BME280;58903;47.210;8.618;2024-03-02T02:55:24;93064.84;;;26.39;38.88
71194;BME280;58903;47.210;8.618;2024-03-02T02:57:50;93057.66;;;26.36;38.64
71194;BME280;58903;47.210;8.618;2024-03-02T03:00:37;93060.09;;;26.40;38.73
71194;BME280;58903;47.210;8.618;2024-03-02T03:06:13;93065.41;;;26.38;39.13
71194;BME280;58903;47.210;8.618;2024-03-02T03:08:40;93055.09;;;26.38;38.75
71194;BME280;58903;47.210;8.618;2024-03-02T03:11:10;93055.84;;;26.39;38.99
71194;BME280;58903;47.210;8.618;2024-03-02T03:13:38;93047.38;;;26.37;38.62
71194;BME280;58903;47.210;8.618;2024-03-02T03:16:12;93053.09;;;26.39;39.02
71194;BME280;58903;47.210;8.618;2024-03-02T03:18:39;93052.91;;;26.37;39.10
71194;BME280;58903;47.210;8.618;2024-03-02T03:21:05;93056.03;;;26.41;38.35
71194;BME280;58903;47.210;8.618;2024-03-02T03:23:37;93052.56;;;26.40;38.98
71194;BME280;58903;47.210;8.618;2024-03-02T03:26:21;93048.88;;;26.38;38.80
71194;BME280;58903;47.210;8.618;2024-03-02T03:28:49;93055.66;;;26.37;39.01
71194;BME280;58903;47.210;8.618;2024-03-02T03:31:15;93052.91;;;26.37;38.94
71194;BME280;58903;47.210;8.618;2024-03-02T03:33:49;93043.00;;;26.34;38.54
71194;BME280;58903;47.210;8.618;2024-03-02T03:36:23;93043.34;;;26.38;39.08
71194;BME280;58903;47.210;8.618;2024-03-02T03:38:51;93047.19;;;26.35;38.72
71194;BME280;58903;47.210;8.618;2024-03-02T03:41:26;93052.16;;;26.36;38.48
71194;BME280;58903;47.210;8.618;2024-03-02T03:44:05;93047.38;;;26.37;39.48
71194;BME280;58903;47.210;8.618;2024-03-02T03:46:33;93051.06;;;26.39;38.78
71194;BME280;58903;47.210;8.618;2024-03-02T03:49:01;93051.63;;;26.38;39.13
71194;BME280;58903;47.210;8.618;2024-03-02T03:51:27;93050.69;;;26.35;38.94
71194;BME280;58903;47.210;8.618;2024-03-02T03:53:53;93050.69;;;26.35;38.74
71194;BME280;58903;47.210;8.618;2024-03-02T03:56:20;93048.13;;;26.37;38.80
71194;BME280;58903;47.210;8.618;2024-03-02T03:58:46;93052.91;;;26.37;38.77
71194;BME280;58903;47.210;8.618;2024-03-02T04:01:22;93045.38;;;26.37;38.87
71194;BME280;58903;47.210;8.618;2024-03-02T04:04:03;93041.88;;;26.37;39.04
71194;BME280;58903;47.210;8.618;2024-03-02T04:06:48;93037.84;;;26.38;38.82
71194;BME280;58903;47.210;8.618;2024-03-02T04:09:29;93044.06;;;26.38;38.93
71194;BME280;58903;47.210;8.618;2024-03-02T04:11:58;93042.44;;;26.35;38.88
71194;BME280;58903;47.210;8.618;2024-03-02T04:14:35;93041.69;;;26.35;38.50
71194;BME280;58903;47.210;8.618;2024-03-02T04:17:03;93038.75;;;26.33;38.97
71194;BME280;58903;47.210;8.618;2024-03-02T04:19:32;93044.44;;;26.35;38.38
71194;BME280;58903;47.210;8.618;2024-03-02T04:22:11;93041.88;;;26.37;38.45
71194;BME280;58903;47.210;8.618;2024-03-02T04:25:10;93044.81;;;26.39;38.40
71194;BME280;58903;47.210;8.618;2024-03-02T04:27:36;93041.88;;;26.37;38.55
71194;BME280;58903;47.210;8.618;2024-03-02T04:30:03;93038.94;;;26.35;38.74
71194;BME280;58903;47.210;8.618;2024-03-02T04:32:59;93042.63;;;26.37;38.37
71194;BME280;58903;47.210;8.618;2024-03-02T04:35:42;93049.22;;;26.34;38.54
71194;BME280;58903;47.210;8.618;2024-03-02T04:38:24;93042.81;;;26.32;38.49
71194;BME280;58903;47.210;8.618;2024-03-02T04:41:16;93041.50;;;26.33;38.51
71194;BME280;58903;47.210;8.618;2024-03-02T04:44:04;93038.94;;;26.35;38.51
71194;BME280;58903;47.210;8.618;2024-03-02T04:46:42;93039.69;;;26.35;38.48
71194;BME280;58903;47.210;8.618;2024-03-02T04:49:20;93033.41;;;26.27;38.63
71194;BME280;58903;47.210;8.618;2024-03-02T04:51:56;93037.06;;;26.30;38.98
71194;BME280;58903;47.210;8.618;2024-03-02T04:54:25;93043.34;;;26.30;38.79
71194;BME280;58903;47.210;8.618;2024-03-02T04:56:51;93046.84;;;26.31;39.13
71194;BME280;58903;47.210;8.618;2024-03-02T04:59:18;93055.28;;;26.33;38.91
71194;BME280;58903;47.210;8.618;2024-03-02T05:01:44;93056.03;;;26.33;38.83
71194;BME280;58903;47.210;8.618;2024-03-02T05:04:50;93059.72;;;26.36;38.48
71194;BME280;58903;47.210;8.618;2024-03-02T05:07:19;93060.78;;;26.33;38.87
71194;BME280;58903;47.210;8.618;2024-03-02T05:09:55;93055.84;;;26.31;38.80
71194;BME280;58903;47.210;8.618;2024-03-02T05:12:22;93062.09;;;26.32;38.33
71194;BME280;58903;47.210;8.618;2024-03-02T05:15:24;93062.81;;;26.32;38.69
71194;BME280;58903;47.210;8.618;2024-03-02T05:18:10;93060.06;;;26.32;38.68
71194;BME280;58903;47.210;8.618;2024-03-02T05:20:43;93063.56;;;26.33;38.60
71194;BME280;58903;47.210;8.618;2024-03-02T05:23:20;93060.44;;;26.29;38.50
71194;BME280;58903;47.210;8.618;2024-03-02T05:25:58;93063.19;;;26.29;38.94
71194;BME280;58903;47.210;8.618;2024-03-02T05:28:26;93065.94;;;26.29;38.45
71194;BME280;58903;47.210;8.618;2024-03-02T05:30:52;93058.94;;;26.28;38.80
71194;BME280;58903;47.210;8.618;2024-03-02T05:33:17;93059.31;;;26.24;38.48
71194;BME280;58903;47.210;8.618;2024-03-02T05:35:50;93064.25;;;26.26;39.21
71194;BME280;58903;47.210;8.618;2024-03-02T05:38:17;93072.72;;;26.28;38.82
71194;BME280;58903;47.210;8.618;2024-03-02T05:40:46;93066.09;;;26.23;39.09
71194;BME280;58903;47.210;8.618;2024-03-02T05:43:23;93068.31;;;26.25;39.18
71194;BME280;58903;47.210;8.618;2024-03-02T05:45:55;93068.50;;;26.27;39.11
71194;BME280;58903;47.210;8.618;2024-03-02T05:48:31;93067.03;;;26.26;38.45
71194;BME280;58903;47.210;8.618;2024-03-02T05:50:57;93068.31;;;26.25;39.14
71194;BME280;58903;47.210;8.618;2024-03-02T05:53:42;93062.06;;;26.24;38.45
71194;BME280;58903;47.210;8.618;2024-03-02T05:56:24;93065.38;;;26.23;39.25
71194;BME280;58903;47.210;8.618;2024-03-02T05:58:55;93064.06;;;26.24;39.20
71194;BME280;58903;47.210;8.618;2024-03-02T06:02:01;93070.34;;;26.24;38.97
71194;BME280;58903;47.210;8.618;2024-03-02T06:04:26;93060.97;;;26.27;39.12
71194;BME280;58903;47.210;8.618;2024-03-02T06:06:57;93067.03;;;26.26;38.80
71194;BME280;58903;47.210;8.618;2024-03-02T06:09:30;93062.81;;;26.25;38.57
71194;BME280;58903;47.210;8.618;2024-03-02T06:12:06;93066.84;;;26.24;39.09
71194;BME280;58903;47.210;8.618;2024-03-02T06:14:38;93067.19;;;26.20;39.42
71194;BME280;58903;47.210;8.618;2024-03-02T06:17:09;93068.66;;;26.21;39.08
71194;BME280;58903;47.210;8.618;2024-03-02T06:19:38;93057.28;;;26.25;38.62
71194;BME280;58903;47.210;8.618;2024-03-02T06:22:11;93057.28;;;26.25;39.18
71194;BME280;58903;47.210;8.618;2024-03-02T06:24:37;93067.38;;;26.22;39.21
71194;BME280;58903;47.210;8.618;2024-03-02T06:27:03;93068.84;;;26.23;39.52
71194;BME280;58903;47.210;8.618;2024-03-02T06:29:33;93072.16;;;26.22;39.36
71194;BME280;58903;47.210;8.618;2024-03-02T06:31:59;93071.22;;;26.19;39.22
71194;BME280;58903;47.210;8.618;2024-03-02T06:34:30;93065.00;;;26.19;39.50
71194;BME280;58903;47.210;8.618;2024-03-02T06:36:59;93070.50;;;26.19;39.12
71194;BME280;58903;47.210;8.618;2024-03-02T06:39:25;93077.13;;;26.23;39.34
71194;BME280;58903;47.210;8.618;2024-03-02T06:41:54;93083.91;;;26.22;39.35
71194;BME280;58903;47.210;8.618;2024-03-02T06:44:22;93077.13;;;26.23;39.30
71194;BME280;58903;47.210;8.618;2024-03-02T06:46:48;93073.84;;;26.25;39.34
71194;BME280;58903;47.210;8.618;2024-03-02T06:49:22;93071.25;;;26.27;39.36
71194;BME280;58903;47.210;8.618;2024-03-02T06:51:49;93070.50;;;26.26;38.74
71194;BME280;58903;47.210;8.618;2024-03-02T06:54:16;93064.44;;;26.28;39.15
71194;BME280;58903;47.210;8.618;2024-03-02T06:56:43;93066.88;;;26.31;39.27
71194;BME280;58903;47.210;8.618;2024-03-02T06:59:10;93065.03;;;26.34;38.62
71194;BME280;58903;47.210;8.618;2024-03-02T07:01:36;93060.25;;;26.34;38.66
71194;BME280;58903;47.210;8.618;2024-03-02T07:04:04;93066.13;;;26.31;39.15
71194;BME280;58903;47.210;8.618;2024-03-02T07:06:33;93067.59;;;26.32;38.98
71194;BME280;58903;47.210;8.618;2024-03-02T07:08:59;93065.94;;;26.36;39.03
71194;BME280;58903;47.210;8.618;2024-03-02T07:11:31;93070.19;;;26.37;39.29
71194;BME280;58903;47.210;8.618;2024-03-02T07:13:59;93060.97;;;26.35;39.07
71194;BME280;58903;47.210;8.618;2024-03-02T07:16:29;93066.50;;;26.35;39.53
71194;BME280;58903;47.210;8.618;2024-03-02T07:19:01;93059.34;;;26.39;38.96
71194;BME280;58903;47.210;8.618;2024-03-02T07:21:29;93057.16;;;26.38;39.70
71194;BME280;58903;47.210;8.618;2024-03-02T07:24:01;93061.91;;;26.37;39.19
71194;BME280;58903;47.210;8.618;2024-03-02T07:26:31;93056.59;;;26.39;38.87
71194;BME280;58903;47.210;8.618;2024-03-02T07:28:57;93055.84;;;26.39;39.31
71194;BME280;58903;47.210;8.618;2024-03-02T07:31:23;93044.81;;;26.39;39.27
71194;BME280;58903;47.210;8.618;2024-03-02T07:33:49;93047.75;;;26.41;39.04
71194;BME280;58903;47.210;8.618;2024-03-02T07:36:16;93043.00;;;26.41;39.40
71194;BME280;58903;47.210;8.618;2024-03-02T07:38:52;93043.19;;;26.43;39.14
71194;BME280;58903;47.210;8.618;2024-03-02T07:41:19;93035.66;;;26.44;39.15
71194;BME280;58903;47.210;8.618;2024-03-02T07:43:45;93039.34;;;26.46;38.92
71194;BME280;58903;47.210;8.618;2024-03-02T07:46:16;93026.47;;;26.49;39.21
71194;BME280;58903;47.210;8.618;2024-03-02T07:49:09;93029.59;;;26.53;38.76
71194;BME280;58903;47.210;8.618;2024-03-02T07:51:38;93029.59;;;26.53;38.92
71194;BME280;58903;47.210;8.618;2024-03-02T07:54:11;93028.31;;;26.54;38.65
71194;BME280;58903;47.210;8.618;2024-03-02T07:56:38;93022.78;;;26.54;38.74
71194;BME280;58903;47.210;8.618;2024-03-02T07:59:10;93025.00;;;26.55;39.03
71194;BME280;58903;47.210;8.618;2024-03-02T08:01:36;93025.00;;;26.55;39.22
71194;BME280;58903;47.210;8.618;2024-03-02T08:04:07;93033.47;;;26.57;39.86
71194;BME280;58903;47.210;8.618;2024-03-02T08:06:35;93033.47;;;26.57;38.77
71194;BME280;58903;47.210;8.618;2024-03-02T08:09:10;93027.22;;;26.57;39.45
71194;BME280;58903;47.210;8.618;2024-03-02T08:11:54;93027.22;;;26.57;39.21
71194;BME280;58903;47.210;8.618;2024-03-02T08:14:28;93026.66;;;26.58;39.45
71194;BME280;58903;47.210;8.618;2024-03-02T08:16:55;93034.94;;;26.58;39.58
71194;BME280;58903;47.210;8.618;2024-03-02T08:19:27;93025.72;;;26.56;39.02
71194;BME280;58903;47.210;8.618;2024-03-02T08:22:14;93027.41;;;26.59;39.43
71194;BME280;58903;47.210;8.618;2024-03-02T08:24:44;93021.13;;;26.58;39.11
71194;BME280;58903;47.210;8.618;2024-03-02T08:27:10;93011.41;;;26.57;39.28
71194;BME280;58903;47.210;8.618;2024-03-02T08:29:37;93010.66;;;26.57;39.51
71194;BME280;58903;47.210;8.618;2024-03-02T08:32:04;93007.91;;;26.57;38.69
71194;BME280;58903;47.210;8.618;2024-03-02T08:34:30;93008.09;;;26.59;38.92
71194;BME280;58903;47.210;8.618;2024-03-02T08:36:58;92998.72;;;26.62;39.06
71194;BME280;58903;47.210;8.618;2024-03-02T08:39:29;93000.19;;;26.63;39.29
71194;BME280;58903;47.210;8.618;2024-03-02T08:41:58;93007.19;;;26.64;39.18
71194;BME280;58903;47.210;8.618;2024-03-02T08:44:42;93005.88;;;26.65;39.04
71194;BME280;58903;47.210;8.618;2024-03-02T08:47:12;92994.66;;;26.63;39.43
71194;BME280;58903;47.210;8.618;2024-03-02T08:49:40;92978.69;;;26.61;39.28
71194;BME280;58903;47.210;8.618;2024-03-02T08:52:08;92986.22;;;26.61;39.37
71194;BME280;58903;47.210;8.618;2024-03-02T08:54:35;92985.13;;;26.64;39.48
71194;BME280;58903;47.210;8.618;2024-03-02T08:57:09;92976.84;;;26.64;39.16
71194;BME280;58903;47.210;8.618;2024-03-02T08:59:46;92980.88;;;26.63;39.01
71194;BME280;58903;47.210;8.618;2024-03-02T09:02:19;92973.91;;;26.62;39.37
71194;BME280;58903;47.210;8.618;2024-03-02T09:04:46;92963.97;;;26.66;39.18
71194;BME280;58903;47.210;8.618;2024-03-02T09:07:21;92967.47;;;26.67;39.06
71194;BME280;58903;47.210;8.618;2024-03-02T09:09:47;92970.22;;;26.67;39.46
71194;BME280;58903;47.210;8.618;2024-03-02T09:12:24;92968.94;;;26.68;39.35
71194;BME280;58903;47.210;8.618;2024-03-02T09:14:51;92960.09;;;26.69;39.41
71194;BME280;58903;47.210;8.618;2024-03-02T09:17:18;92955.16;;;26.68;38.95
71194;BME280;58903;47.210;8.618;2024-03-02T09:19:44;92954.41;;;26.67;38.96
71194;BME280;58903;47.210;8.618;2024-03-02T09:22:11;92956.59;;;26.69;38.48
71194;BME280;58903;47.210;8.618;2024-03-02T09:24:41;92965.06;;;26.71;38.70
71194;BME280;58903;47.210;8.618;2024-03-02T09:27:07;92961.94;;;26.67;38.80
71194;BME280;58903;47.210;8.618;2024-03-02T09:29:35;92950.91;;;26.67;38.40
71194;BME280;58903;47.210;8.618;2024-03-02T09:32:03;92948.50;;;26.71;38.61
71194;BME280;58903;47.210;8.618;2024-03-02T09:34:29;92949.81;;;26.70;38.36
71194;BME280;58903;47.210;8.618;2024-03-02T09:36:58;92948.50;;;26.71;38.38
71194;BME280;58903;47.210;8.618;2024-03-02T09:39:34;92941.72;;;26.72;38.27
71194;BME280;58903;47.210;8.618;2024-03-02T09:42:04;92940.97;;;26.71;38.77
71194;BME280;58903;47.210;8.618;2024-03-02T09:44:33;92940.47;;;26.73;38.29
71194;BME280;58903;47.210;8.618;2024-03-02T09:47:06;92949.81;;;26.70;38.52
71194;BME280;58903;47.210;8.618;2024-03-02T09:49:37;92947.44;;;26.74;38.22
71194;BME280;58903;47.210;8.618;2024-03-02T09:52:34;92951.28;;;26.71;38.42
71194;BME280;58903;47.210;8.618;2024-03-02T09:55:17;92951.50;;;26.73;38.73
71194;BME280;58903;47.210;8.618;2024-03-02T09:57:45;92940.97;;;26.71;38.58
71194;BME280;58903;47.210;8.618;2024-03-02T10:00:17;92947.25;;;26.72;38.57
71194;BME280;58903;47.210;8.618;2024-03-02T10:02:43;92949.25;;;26.71;38.59
71194;BME280;58903;47.210;8.618;2024-03-02T10:05:10;92945.22;;;26.72;39.06
71194;BME280;58903;47.210;8.618;2024-03-02T10:07:38;92933.44;;;26.72;38.82
71194;BME280;58903;47.210;8.618;2024-03-02T10:10:15;92938.59;;;26.75;38.62
71194;BME280;58903;47.210;8.618;2024-03-02T10:12:42;92936.59;;;26.76;38.49
71194;BME280;58903;47.210;8.618;2024-03-02T10:15:24;92931.25;;;26.78;38.93
71194;BME280;58903;47.210;8.618;2024-03-02T10:17:51;92929.06;;;26.76;38.95
71194;BME280;58903;47.210;8.618;2024-03-02T10:20:27;92931.25;;;26.78;38.27
71194;BME280;58903;47.210;8.618;2024-03-02T10:23:24;92929.41;;;26.80;38.62
71194;BME280;58903;47.210;8.618;2024-03-02T10:25:52;92937.50;;;26.78;38.64
71194;BME280;58903;47.210;8.618;2024-03-02T10:28:19;92937.50;;;26.78;38.78
71194;BME280;58903;47.210;8.618;2024-03-02T10:30:48;92936.25;;;26.79;38.60
71194;BME280;58903;47.210;8.618;2024-03-02T10:33:17;92932.75;;;26.79;38.52
71194;BME280;58903;47.210;8.618;2024-03-02T10:35:46;92925.75;;;26.78;38.65
71194;BME280;58903;47.210;8.618;2024-03-02T10:38:13;92929.97;;;26.79;38.76
71194;BME280;58903;47.210;8.618;2024-03-02T10:40:47;92930.34;;;26.83;38.75
71194;BME280;58903;47.210;8.618;2024-03-02T10:43:15;92921.31;;;26.82;38.48
71194;BME280;58903;47.210;8.618;2024-03-02T10:45:49;92911.03;;;26.83;38.58
71194;BME280;58903;47.210;8.618;2024-03-02T10:48:25;92903.84;;;26.80;38.58
71194;BME280;58903;47.210;8.618;2024-03-02T10:50:52;92902.00;;;26.82;38.64
71194;BME280;58903;47.210;8.618;2024-03-02T10:53:21;92896.66;;;26.84;38.70
71194;BME280;58903;47.210;8.618;2024-03-02T10:55:57;92907.72;;;26.84;38.54
71194;BME280;58903;47.210;8.618;2024-03-02T10:58:32;92900.72;;;26.83;38.71
71194;BME280;58903;47.210;8.618;2024-03-02T11:01:03;92893.38;;;26.86;38.25
71194;BME280;58903;47.210;8.618;2024-03-02T11:03:37;92898.91;;;26.86;38.32
71194;BME280;58903;47.210;8.618;2024-03-02T11:06:08;92890.63;;;26.86;38.13
71194;BME280;58903;47.210;8.618;2024-03-02T11:08:38;92895.56;;;26.87;38.67
71194;BME280;58903;47.210;8.618;2024-03-02T11:11:15;92895.75;;;26.89;38.63
71194;BME280;58903;47.210;8.618;2024-03-02T11:13:50;92880.47;;;26.88;38.98
71194;BME280;58903;47.210;8.618;2024-03-02T11:16:34;92882.69;;;26.90;38.46
71194;BME280;58903;47.210;8.618;2024-03-02T11:19:12;92892.59;;;26.93;38.68
71194;BME280;58903;47.210;8.618;2024-03-02T11:21:46;92884.31;;;26.93;38.62
71194;BME280;58903;47.210;8.618;2024-03-02T11:27:03;92875.31;;;26.92;38.41
71194;BME280;58903;47.210;8.618;2024-03-02T11:32:02;92869.09;;;26.92;38.64
71194;BME280;58903;47.210;8.618;2024-03-02T11:34:35;92859.50;;;26.93;38.77
71194;BME280;58903;47.210;8.618;2024-03-02T11:37:13;92863.91;;;26.96;38.88
71194;BME280;58903;47.210;8.618;2024-03-02T11:39:45;92859.84;;;26.97;38.65
71194;BME280;58903;47.210;8.618;2024-03-02T11:42:16;92867.41;;;26.97;39.05
71194;BME280;58903;47.210;8.618;2024-03-02T11:44:46;92851.75;;;26.99;38.65
71194;BME280;58903;47.210;8.618;2024-03-02T11:47:16;92844.03;;;27.05;38.47
71194;BME280;58903;47.210;8.618;2024-03-02T11:49:55;92847.88;;;27.02;38.87
71194;BME280;58903;47.210;8.618;2024-03-02T11:52:31;92854.16;;;27.03;39.25
71194;BME280;58903;47.210;8.618;2024-03-02T11:55:03;92842.38;;;27.02;39.66
71194;BME280;58903;47.210;8.618;2024-03-02T11:57:45;92837.03;;;27.04;39.85
71194;BME280;58903;47.210;8.618;2024-03-02T12:00:20;92841.97;;;27.06;39.89
71194;BME280;58903;47.210;8.618;2024-03-02T12:03:06;92837.94;;;27.07;40.04
71194;BME280;58903;47.210;8.618;2024-03-02T12:05:52;92830.41;;;27.07;39.80
71194;BME280;58903;47.210;8.618;2024-03-02T12:08:27;92832.03;;;27.10;39.64
71194;BME280;58903;47.210;8.618;2024-03-02T12:11:01;92823.03;;;27.10;39.63
71194;BME280;58903;47.210;8.618;2024-03-02T12:13:34;92820.09;;;27.08;39.91
71194;BME280;58903;47.210;8.618;2024-03-02T12:16:00;92826.50;;;27.10;39.80
71194;BME280;58903;47.210;8.618;2024-03-02T12:18:27;92814.75;;;27.10;39.94
71194;BME280;58903;47.210;8.618;2024-03-02T12:20:59;92814.19;;;27.11;39.79
71194;BME280;58903;47.210;8.618;2024-03-02T12:23:34;92808.84;;;27.13;40.16
71194;BME280;58903;47.210;8.618;2024-03-02T12:26:00;92807.00;;;27.16;39.43
71194;BME280;58903;47.210;8.618;2024-03-02T12:28:26;92800.16;;;27.17;39.28
71194;BME280;58903;47.210;8.618;2024-03-02T12:30:52;92802.22;;;27.16;39.62
71194;BME280;58903;47.210;8.618;2024-03-02T12:33:19;92791.34;;;27.18;39.74
71194;BME280;58903;47.210;8.618;2024-03-02T12:35:45;92797.59;;;27.19;40.06
71194;BME280;58903;47.210;8.618;2024-03-02T12:38:12;92796.88;;;27.18;40.05
71194;BME280;58903;47.210;8.618;2024-03-02T12:40:39;92795.56;;;27.19;40.00
71194;BME280;58903;47.210;8.618;2024-03-02T12:43:19;92793.53;;;27.20;39.85
71194;BME280;58903;47.210;8.618;2024-03-02T12:45:45;92781.75;;;27.19;39.96
71194;BME280;58903;47.210;8.618;2024-03-02T12:48:14;92782.84;;;27.24;39.85
71194;BME280;58903;47.210;8.618;2024-03-02T12:51:07;92778.22;;;27.26;39.89
71194;BME280;58903;47.210;8.618;2024-03-02T12:54:04;92775.47;;;27.26;39.77
71194;BME280;58903;47.210;8.618;2024-03-02T12:56:45;92779.16;;;27.29;39.51
71194;BME280;58903;47.210;8.618;2024-03-02T12:59:24;92773.06;;;27.30;39.42
71194;BME280;58903;47.210;8.618;2024-03-02T13:01:55;92780.06;;;27.31;39.52
71194;BME280;58903;47.210;8.618;2024-03-02T13:04:29;92769.19;;;27.33;39.50
71194;BME280;58903;47.210;8.618;2024-03-02T13:06:57;92764.03;;;27.37;39.06
71194;BME280;58903;47.210;8.618;2024-03-02T13:09:53;92762.50;;;27.44;38.78
71194;BME280;58903;47.210;8.618;2024-03-02T13:12:31;92761.41;;;27.47;39.30
71194;BME280;58903;47.210;8.618;2024-03-02T13:15:18;92765.03;;;27.49;38.94
71194;BME280;58903;47.210;8.618;2024-03-02T13:18:00;92751.25;;;27.49;38.84
71194;BME280;58903;47.210;8.618;2024-03-02T13:20:46;92749.44;;;27.44;38.89
71194;BME280;58903;47.210;8.618;2024-03-02T13:23:12;92745.38;;;27.45;39.08
71194;BME280;58903;47.210;8.618;2024-03-02T13:25:49;92742.63;;;27.45;38.99
71194;BME280;58903;47.210;8.618;2024-03-02T13:28:15;92732.88;;;27.44;38.87
71194;BME280;58903;47.210;8.618;2024-03-02T13:30:41;92738.78;;;27.41;38.91
71194;BME280;58903;47.210;8.618;2024-03-02T13:33:07;92735.84;;;27.39;38.93
71194;BME280;58903;47.210;8.618;2024-03-02T13:35:33;92739.53;;;27.41;39.41
71194;BME280;58903;47.210;8.618;2024-03-02T13:38:08;92743.41;;;27.38;38.82